sensor_id;sensor_type;location;lat;lon;timestamp;P1;durP1;ratioP1;P2;durP2;ratioP2
67819;SDS011;54618;52.018;5.576;2023-04-15T00:00:32;7.05;;;1.73;;
67819;SDS011;54618;52.018;5.576;2023-04-15T00:02:58;3.95;;;1.50;;
67819;SDS011;54618;52.018;5.576;2023-04-15T00:05:24;4.45;;;1.60;;
67819;SDS011;54618;52.018;5.576;2023-04-15T00:07:50;4.75;;;1.50;;
67819;SDS011;54618;52.018;5.576;2023-04-15T00:10:15;4.03;;;1.70;;
67819;SDS011;54618;52.018;5.576;2023-04-15T00:12:41;3.47;;;1.38;;
67819;SDS011;54618;52.018;5.576;2023-04-15T00:15:07;4.85;;;1.88;;
67819;SDS011;54618;52.018;5.576;2023-04-15T00:17:34;4.13;;;1.40;;
67819;SDS011;54618;52.018;5.576;2023-04-15T00:20:00;3.75;;;1.65;;
67819;SDS011;54618;52.018;5.576;2023-04-15T00:22:25;3.35;;;1.30;;
67819;SDS011;54618;52.018;5.576;2023-04-15T00:24:52;6.40;;;1.50;;
67819;SDS011;54618;52.018;5.576;2023-04-15T00:27:18;3.17;;;1.38;;
67819;SDS011;54618;52.018;5.576;2023-04-15T00:29:43;3.55;;;1.70;;
67819;SDS011;54618;52.018;5.576;2023-04-15T00:32:09;5.00;;;1.90;;
67819;SDS011;54618;52.018;5.576;2023-04-15T00:34:35;4.40;;;1.50;;
67819;SDS011;54618;52.018;5.576;2023-04-15T00:37:00;4.20;;;1.63;;
67819;SDS011;54618;52.018;5.576;2023-04-15T00:39:26;4.50;;;1.38;;
67819;SDS011;54618;52.018;5.576;2023-04-15T00:41:52;5.93;;;1.60;;
67819;SDS011;54618;52.018;5.576;2023-04-15T00:44:18;2.70;;;1.30;;
67819;SDS011;54618;52.018;5.576;2023-04-15T00:46:43;3.40;;;1.40;;
67819;SDS011;54618;52.018;5.576;2023-04-15T00:49:10;3.90;;;1.40;;
67819;SDS011;54618;52.018;5.576;2023-04-15T00:51:37;3.92;;;1.63;;
67819;SDS011;54618;52.018;5.576;2023-04-15T00:54:02;3.50;;;1.50;;
67819;SDS011;54618;52.018;5.576;2023-04-15T00:56:28;4.50;;;1.38;;
67819;SDS011;54618;52.018;5.576;2023-04-15T00:58:55;3.17;;;1.30;;
67819;SDS011;54618;52.018;5.576;2023-04-15T01:01:23;3.17;;;1.40;;
67819;SDS011;54618;52.018;5.576;2023-04-15T01:03:50;3.53;;;1.23;;
67819;SDS011;54618;52.018;5.576;2023-04-15T01:06:16;3.45;;;1.42;;
67819;SDS011;54618;52.018;5.576;2023-04-15T01:08:42;2.75;;;1.35;;
67819;SDS011;54618;52.018;5.576;2023-04-15T01:11:08;4.90;;;1.60;;
67819;SDS011;54618;52.018;5.576;2023-04-15T01:13:36;3.63;;;1.60;;
67819;SDS011;54618;52.018;5.576;2023-04-15T01:16:02;3.38;;;1.52;;
67819;SDS011;54618;52.018;5.576;2023-04-15T01:18:28;4.63;;;1.50;;
67819;SDS011;54618;52.018;5.576;2023-04-15T01:20:54;3.47;;;1.60;;
67819;SDS011;54618;52.018;5.576;2023-04-15T01:23:20;3.25;;;1.30;;
67819;SDS011;54618;52.018;5.576;2023-04-15T01:25:47;3.08;;;1.35;;
67819;SDS011;54618;52.018;5.576;2023-04-15T01:28:13;3.22;;;1.30;;
67819;SDS011;54618;52.018;5.576;2023-04-15T01:30:40;3.30;;;1.25;;
67819;SDS011;54618;52.018;5.576;2023-04-15T01:33:05;3.97;;;1.30;;
67819;SDS011;54618;52.018;5.576;2023-04-15T01:35:31;3.63;;;1.60;;
67819;SDS011;54618;52.018;5.576;2023-04-15T01:37:59;3.25;;;1.30;;
67819;SDS011;54618;52.018;5.576;2023-04-15T01:40:32;3.25;;;1.40;;
67819;SDS011;54618;52.018;5.576;2023-04-15T01:42:59;3.63;;;1.45;;
67819;SDS011;54618;52.018;5.576;2023-04-15T01:45:25;2.97;;;1.30;;
67819;SDS011;54618;52.018;5.576;2023-04-15T01:47:51;3.60;;;1.40;;
67819;SDS011;54618;52.018;5.576;2023-04-15T01:50:16;2.83;;;1.20;;
67819;SDS011;54618;52.018;5.576;2023-04-15T01:52:42;2.78;;;1.30;;
67819;SDS011;54618;52.018;5.576;2023-04-15T01:55:08;3.33;;;1.20;;
67819;SDS011;54618;52.018;5.576;2023-04-15T01:57:35;4.35;;;1.30;;
67819;SDS011;54618;52.018;5.576;2023-04-15T02:00:01;3.17;;;1.30;;
67819;SDS011;54618;52.018;5.576;2023-04-15T02:02:27;2.92;;;1.27;;
67819;SDS011;54618;52.018;5.576;2023-04-15T02:04:53;2.97;;;1.20;;
67819;SDS011;54618;52.018;5.576;2023-04-15T02:07:18;3.00;;;1.20;;
67819;SDS011;54618;52.018;5.576;2023-04-15T02:09:44;3.35;;;1.27;;
67819;SDS011;54618;52.018;5.576;2023-04-15T02:12:10;2.90;;;1.20;;
67819;SDS011;54618;52.018;5.576;2023-04-15T02:14:36;2.35;;;1.10;;
67819;SDS011;54618;52.018;5.576;2023-04-15T02:17:01;2.75;;;1.10;;
67819;SDS011;54618;52.018;5.576;2023-04-15T02:19:31;2.38;;;1.10;;
67819;SDS011;54618;52.018;5.576;2023-04-15T02:21:58;2.63;;;1.10;;
67819;SDS011;54618;52.018;5.576;2023-04-15T02:24:24;2.20;;;1.13;;
67819;SDS011;54618;52.018;5.576;2023-04-15T02:26:50;3.55;;;0.90;;
67819;SDS011;54618;52.018;5.576;2023-04-15T02:29:15;2.38;;;1.10;;
67819;SDS011;54618;52.018;5.576;2023-04-15T02:31:41;2.25;;;1.10;;
67819;SDS011;54618;52.018;5.576;2023-04-15T02:34:07;2.03;;;1.10;;
67819;SDS011;54618;52.018;5.576;2023-04-15T02:36:33;3.03;;;1.20;;
67819;SDS011;54618;52.018;5.576;2023-04-15T02:38:58;3.78;;;1.30;;
67819;SDS011;54618;52.018;5.576;2023-04-15T02:41:24;1.88;;;1.20;;
67819;SDS011;54618;52.018;5.576;2023-04-15T02:43:52;3.03;;;1.20;;
67819;SDS011;54618;52.018;5.576;2023-04-15T02:46:18;4.45;;;1.35;;
67819;SDS011;54618;52.018;5.576;2023-04-15T02:48:43;2.92;;;1.10;;
67819;SDS011;54618;52.018;5.576;2023-04-15T02:51:12;2.17;;;1.00;;
67819;SDS011;54618;52.018;5.576;2023-04-15T02:53:39;2.80;;;1.40;;
67819;SDS011;54618;52.018;5.576;2023-04-15T02:56:05;3.10;;;1.17;;
67819;SDS011;54618;52.018;5.576;2023-04-15T02:58:32;2.13;;;1.08;;
67819;SDS011;54618;52.018;5.576;2023-04-15T03:00:58;3.22;;;1.30;;
67819;SDS011;54618;52.018;5.576;2023-04-15T03:03:24;3.08;;;1.23;;
67819;SDS011;54618;52.018;5.576;2023-04-15T03:05:51;2.75;;;1.13;;
67819;SDS011;54618;52.018;5.576;2023-04-15T03:08:17;3.13;;;1.35;;
67819;SDS011;54618;52.018;5.576;2023-04-15T03:10:42;2.60;;;1.15;;
67819;SDS011;54618;52.018;5.576;2023-04-15T03:13:08;2.45;;;0.90;;
67819;SDS011;54618;52.018;5.576;2023-04-15T03:15:35;2.22;;;1.00;;
67819;SDS011;54618;52.018;5.576;2023-04-15T03:18:00;2.63;;;1.00;;
67819;SDS011;54618;52.018;5.576;2023-04-15T03:20:26;2.78;;;1.17;;
67819;SDS011;54618;52.018;5.576;2023-04-15T03:22:51;4.00;;;1.10;;
67819;SDS011;54618;52.018;5.576;2023-04-15T03:25:17;3.78;;;1.30;;
67819;SDS011;54618;52.018;5.576;2023-04-15T03:27:43;2.90;;;1.02;;
67819;SDS011;54618;52.018;5.576;2023-04-15T03:30:08;3.05;;;1.00;;
67819;SDS011;54618;52.018;5.576;2023-04-15T03:32:35;2.78;;;1.13;;
67819;SDS011;54618;52.018;5.576;2023-04-15T03:35:00;2.60;;;1.10;;
67819;SDS011;54618;52.018;5.576;2023-04-15T03:37:26;1.65;;;1.00;;
67819;SDS011;54618;52.018;5.576;2023-04-15T03:39:51;2.65;;;1.30;;
67819;SDS011;54618;52.018;5.576;2023-04-15T03:42:17;2.53;;;1.15;;
67819;SDS011;54618;52.018;5.576;2023-04-15T03:44:42;2.13;;;1.20;;
67819;SDS011;54618;52.018;5.576;2023-04-15T03:47:08;2.75;;;1.15;;
67819;SDS011;54618;52.018;5.576;2023-04-15T03:49:35;3.10;;;1.25;;
67819;SDS011;54618;52.018;5.576;2023-04-15T03:52:01;1.88;;;1.15;;
67819;SDS011;54618;52.018;5.576;2023-04-15T03:54:26;3.78;;;1.20;;
67819;SDS011;54618;52.018;5.576;2023-04-15T03:56:52;2.22;;;1.10;;
67819;SDS011;54618;52.018;5.576;2023-04-15T03:59:17;1.90;;;0.93;;
67819;SDS011;54618;52.018;5.576;2023-04-15T04:01:44;2.58;;;1.00;;
67819;SDS011;54618;52.018;5.576;2023-04-15T04:04:09;2.63;;;1.10;;
67819;SDS011;54618;52.018;5.576;2023-04-15T04:06:35;3.03;;;1.40;;
67819;SDS011;54618;52.018;5.576;2023-04-15T04:09:01;1.50;;;0.90;;
67819;SDS011;54618;52.018;5.576;2023-04-15T04:11:26;2.85;;;1.30;;
67819;SDS011;54618;52.018;5.576;2023-04-15T04:13:52;2.47;;;1.20;;
67819;SDS011;54618;52.018;5.576;2023-04-15T04:16:18;2.47;;;1.10;;
67819;SDS011;54618;52.018;5.576;2023-04-15T04:18:43;2.20;;;1.00;;
67819;SDS011;54618;52.018;5.576;2023-04-15T04:21:09;2.67;;;1.00;;
67819;SDS011;54618;52.018;5.576;2023-04-15T04:23:35;2.13;;;1.00;;
67819;SDS011;54618;52.018;5.576;2023-04-15T04:26:01;2.75;;;1.20;;
67819;SDS011;54618;52.018;5.576;2023-04-15T04:28:26;2.17;;;1.05;;
67819;SDS011;54618;52.018;5.576;2023-04-15T04:30:52;1.55;;;1.00;;
67819;SDS011;54618;52.018;5.576;2023-04-15T04:33:17;2.78;;;1.10;;
67819;SDS011;54618;52.018;5.576;2023-04-15T04:35:43;2.08;;;0.90;;
67819;SDS011;54618;52.018;5.576;2023-04-15T04:38:09;1.92;;;1.00;;
67819;SDS011;54618;52.018;5.576;2023-04-15T04:40:35;2.58;;;1.10;;
67819;SDS011;54618;52.018;5.576;2023-04-15T04:43:01;1.73;;;0.98;;
67819;SDS011;54618;52.018;5.576;2023-04-15T04:45:26;3.47;;;1.10;;
67819;SDS011;54618;52.018;5.576;2023-04-15T04:47:52;3.92;;;1.30;;
67819;SDS011;54618;52.018;5.576;2023-04-15T04:50:17;1.98;;;1.00;;
67819;SDS011;54618;52.018;5.576;2023-04-15T04:52:43;2.45;;;1.00;;
67819;SDS011;54618;52.018;5.576;2023-04-15T04:55:08;2.22;;;1.13;;
67819;SDS011;54618;52.018;5.576;2023-04-15T04:57:34;2.15;;;1.20;;
67819;SDS011;54618;52.018;5.576;2023-04-15T05:00:00;2.33;;;1.10;;
67819;SDS011;54618;52.018;5.576;2023-04-15T05:02:28;2.25;;;1.20;;
67819;SDS011;54618;52.018;5.576;2023-04-15T05:04:54;1.90;;;1.00;;
67819;SDS011;54618;52.018;5.576;2023-04-15T05:07:20;2.20;;;1.25;;
67819;SDS011;54618;52.018;5.576;2023-04-15T05:09:46;3.58;;;1.00;;
67819;SDS011;54618;52.018;5.576;2023-04-15T05:12:11;1.92;;;0.98;;
67819;SDS011;54618;52.018;5.576;2023-04-15T05:14:39;1.90;;;1.00;;
67819;SDS011;54618;52.018;5.576;2023-04-15T05:17:06;1.63;;;0.90;;
67819;SDS011;54618;52.018;5.576;2023-04-15T05:19:32;2.08;;;1.00;;
67819;SDS011;54618;52.018;5.576;2023-04-15T05:21:57;2.33;;;1.00;;
67819;SDS011;54618;52.018;5.576;2023-04-15T05:24:23;1.80;;;1.00;;
67819;SDS011;54618;52.018;5.576;2023-04-15T05:26:49;1.65;;;0.85;;
67819;SDS011;54618;52.018;5.576;2023-04-15T05:29:15;3.17;;;1.13;;
67819;SDS011;54618;52.018;5.576;2023-04-15T05:31:40;1.50;;;1.00;;
67819;SDS011;54618;52.018;5.576;2023-04-15T05:34:06;1.65;;;0.80;;
67819;SDS011;54618;52.018;5.576;2023-04-15T05:36:32;2.08;;;0.90;;
67819;SDS011;54618;52.018;5.576;2023-04-15T05:38:57;2.38;;;1.10;;
67819;SDS011;54618;52.018;5.576;2023-04-15T05:41:23;1.63;;;0.80;;
67819;SDS011;54618;52.018;5.576;2023-04-15T05:43:48;2.08;;;0.77;;
67819;SDS011;54618;52.018;5.576;2023-04-15T05:46:14;2.17;;;1.00;;
67819;SDS011;54618;52.018;5.576;2023-04-15T05:48:40;1.20;;;0.80;;
67819;SDS011;54618;52.018;5.576;2023-04-15T05:51:06;1.20;;;0.80;;
67819;SDS011;54618;52.018;5.576;2023-04-15T05:53:31;1.30;;;0.70;;
67819;SDS011;54618;52.018;5.576;2023-04-15T05:55:57;1.05;;;0.63;;
67819;SDS011;54618;52.018;5.576;2023-04-15T05:58:23;1.83;;;0.90;;
67819;SDS011;54618;52.018;5.576;2023-04-15T06:00:49;1.05;;;0.63;;
67819;SDS011;54618;52.018;5.576;2023-04-15T06:03:14;1.05;;;0.63;;
67819;SDS011;54618;52.018;5.576;2023-04-15T06:05:40;1.45;;;0.80;;
67819;SDS011;54618;52.018;5.576;2023-04-15T06:08:06;1.10;;;0.70;;
67819;SDS011;54618;52.018;5.576;2023-04-15T06:10:33;1.75;;;0.80;;
67819;SDS011;54618;52.018;5.576;2023-04-15T06:13:00;1.65;;;0.80;;
67819;SDS011;54618;52.018;5.576;2023-04-15T06:15:29;1.52;;;0.70;;
67819;SDS011;54618;52.018;5.576;2023-04-15T06:17:55;0.85;;;0.65;;
67819;SDS011;54618;52.018;5.576;2023-04-15T06:20:20;1.50;;;0.80;;
67819;SDS011;54618;52.018;5.576;2023-04-15T06:22:46;1.92;;;0.90;;
67819;SDS011;54618;52.018;5.576;2023-04-15T06:25:11;1.65;;;0.90;;
67819;SDS011;54618;52.018;5.576;2023-04-15T06:27:38;1.15;;;0.75;;
67819;SDS011;54618;52.018;5.576;2023-04-15T06:30:04;1.60;;;0.70;;
67819;SDS011;54618;52.018;5.576;2023-04-15T06:32:30;1.30;;;0.70;;
67819;SDS011;54618;52.018;5.576;2023-04-15T06:34:56;2.03;;;0.82;;
67819;SDS011;54618;52.018;5.576;2023-04-15T06:37:22;1.70;;;0.90;;
67819;SDS011;54618;52.018;5.576;2023-04-15T06:39:47;1.20;;;0.70;;
67819;SDS011;54618;52.018;5.576;2023-04-15T06:42:13;1.05;;;0.68;;
67819;SDS011;54618;52.018;5.576;2023-04-15T06:44:39;0.95;;;0.63;;
67819;SDS011;54618;52.018;5.576;2023-04-15T06:47:05;1.92;;;0.77;;
67819;SDS011;54618;52.018;5.576;2023-04-15T06:49:30;1.38;;;0.77;;
67819;SDS011;54618;52.018;5.576;2023-04-15T06:51:57;1.52;;;0.77;;
67819;SDS011;54618;52.018;5.576;2023-04-15T06:54:24;1.10;;;0.60;;
67819;SDS011;54618;52.018;5.576;2023-04-15T06:56:50;2.22;;;0.80;;
67819;SDS011;54618;52.018;5.576;2023-04-15T06:59:16;1.02;;;0.60;;
67819;SDS011;54618;52.018;5.576;2023-04-15T07:01:41;1.55;;;0.77;;
67819;SDS011;54618;52.018;5.576;2023-04-15T07:04:07;1.23;;;0.70;;
67819;SDS011;54618;52.018;5.576;2023-04-15T07:06:33;0.90;;;0.60;;
67819;SDS011;54618;52.018;5.576;2023-04-15T07:08:59;1.17;;;0.70;;
67819;SDS011;54618;52.018;5.576;2023-04-15T07:11:25;1.42;;;0.70;;
67819;SDS011;54618;52.018;5.576;2023-04-15T07:13:51;1.48;;;0.65;;
67819;SDS011;54618;52.018;5.576;2023-04-15T07:16:16;0.90;;;0.60;;
67819;SDS011;54618;52.018;5.576;2023-04-15T07:18:42;1.35;;;0.65;;
67819;SDS011;54618;52.018;5.576;2023-04-15T07:21:07;1.33;;;0.68;;
67819;SDS011;54618;52.018;5.576;2023-04-15T07:23:33;1.10;;;0.70;;
67819;SDS011;54618;52.018;5.576;2023-04-15T07:25:59;1.30;;;0.70;;
67819;SDS011;54618;52.018;5.576;2023-04-15T07:28:25;1.00;;;0.60;;
67819;SDS011;54618;52.018;5.576;2023-04-15T07:30:51;1.08;;;0.70;;
67819;SDS011;54618;52.018;5.576;2023-04-15T07:33:16;1.48;;;0.60;;
67819;SDS011;54618;52.018;5.576;2023-04-15T07:35:42;1.15;;;0.70;;
67819;SDS011;54618;52.018;5.576;2023-04-15T07:38:07;1.13;;;0.60;;
67819;SDS011;54618;52.018;5.576;2023-04-15T07:40:33;1.70;;;0.82;;
67819;SDS011;54618;52.018;5.576;2023-04-15T07:42:58;1.17;;;0.60;;
67819;SDS011;54618;52.018;5.576;2023-04-15T07:45:24;1.05;;;0.60;;
67819;SDS011;54618;52.018;5.576;2023-04-15T07:47:49;1.20;;;0.63;;
67819;SDS011;54618;52.018;5.576;2023-04-15T07:50:15;1.98;;;0.90;;
67819;SDS011;54618;52.018;5.576;2023-04-15T07:52:41;0.55;;;0.55;;
67819;SDS011;54618;52.018;5.576;2023-04-15T07:55:07;1.30;;;0.70;;
67819;SDS011;54618;52.018;5.576;2023-04-15T07:57:34;1.13;;;0.70;;
67819;SDS011;54618;52.018;5.576;2023-04-15T08:00:00;0.95;;;0.60;;
67819;SDS011;54618;52.018;5.576;2023-04-15T08:02:27;1.15;;;0.70;;
67819;SDS011;54618;52.018;5.576;2023-04-15T08:04:53;1.13;;;0.70;;
67819;SDS011;54618;52.018;5.576;2023-04-15T08:07:18;1.02;;;0.60;;
67819;SDS011;54618;52.018;5.576;2023-04-15T08:09:45;1.15;;;0.50;;
67819;SDS011;54618;52.018;5.576;2023-04-15T08:12:10;1.05;;;0.70;;
67819;SDS011;54618;52.018;5.576;2023-04-15T08:14:37;1.00;;;0.60;;
67819;SDS011;54618;52.018;5.576;2023-04-15T08:17:03;0.75;;;0.55;;
67819;SDS011;54618;52.018;5.576;2023-04-15T08:19:29;1.33;;;0.63;;
67819;SDS011;54618;52.018;5.576;2023-04-15T08:21:55;2.05;;;0.68;;
67819;SDS011;54618;52.018;5.576;2023-04-15T08:24:21;1.60;;;0.70;;
67819;SDS011;54618;52.018;5.576;2023-04-15T08:26:46;0.88;;;0.55;;
67819;SDS011;54618;52.018;5.576;2023-04-15T08:29:12;1.13;;;0.80;;
67819;SDS011;54618;52.018;5.576;2023-04-15T08:31:37;1.02;;;0.70;;
67819;SDS011;54618;52.018;5.576;2023-04-15T08:34:03;1.50;;;0.80;;
67819;SDS011;54618;52.018;5.576;2023-04-15T08:36:29;1.05;;;0.60;;
67819;SDS011;54618;52.018;5.576;2023-04-15T08:38:56;2.88;;;0.70;;
67819;SDS011;54618;52.018;5.576;2023-04-15T08:41:22;1.73;;;0.60;;
67819;SDS011;54618;52.018;5.576;2023-04-15T08:44:02;1.75;;;0.60;;
67819;SDS011;54618;52.018;5.576;2023-04-15T08:46:30;1.63;;;0.80;;
67819;SDS011;54618;52.018;5.576;2023-04-15T08:48:56;1.90;;;0.70;;
67819;SDS011;54618;52.018;5.576;2023-04-15T08:51:22;0.95;;;0.60;;
67819;SDS011;54618;52.018;5.576;2023-04-15T08:53:48;1.63;;;0.63;;
67819;SDS011;54618;52.018;5.576;2023-04-15T08:56:15;1.52;;;0.68;;
67819;SDS011;54618;52.018;5.576;2023-04-15T08:58:42;0.70;;;0.50;;
67819;SDS011;54618;52.018;5.576;2023-04-15T09:01:09;1.35;;;0.60;;
67819;SDS011;54618;52.018;5.576;2023-04-15T09:03:36;2.58;;;0.70;;
67819;SDS011;54618;52.018;5.576;2023-04-15T09:06:03;0.93;;;0.65;;
67819;SDS011;54618;52.018;5.576;2023-04-15T09:08:30;1.45;;;0.50;;
67819;SDS011;54618;52.018;5.576;2023-04-15T09:10:56;2.35;;;0.70;;
67819;SDS011;54618;52.018;5.576;2023-04-15T09:13:21;2.70;;;0.70;;
67819;SDS011;54618;52.018;5.576;2023-04-15T09:15:47;1.23;;;0.70;;
67819;SDS011;54618;52.018;5.576;2023-04-15T09:18:13;3.38;;;0.73;;
67819;SDS011;54618;52.018;5.576;2023-04-15T09:20:55;1.50;;;0.80;;
67819;SDS011;54618;52.018;5.576;2023-04-15T09:23:39;1.00;;;0.60;;
67819;SDS011;54618;52.018;5.576;2023-04-15T09:26:35;1.10;;;0.55;;
67819;SDS011;54618;52.018;5.576;2023-04-15T09:29:05;0.80;;;0.50;;
67819;SDS011;54618;52.018;5.576;2023-04-15T09:31:32;1.80;;;0.50;;
67819;SDS011;54618;52.018;5.576;2023-04-15T09:33:58;1.00;;;0.60;;
67819;SDS011;54618;52.018;5.576;2023-04-15T09:36:23;1.38;;;0.50;;
67819;SDS011;54618;52.018;5.576;2023-04-15T09:38:56;1.42;;;0.60;;
67819;SDS011;54618;52.018;5.576;2023-04-15T09:41:23;1.02;;;0.50;;
67819;SDS011;54618;52.018;5.576;2023-04-15T09:43:49;2.38;;;0.50;;
67819;SDS011;54618;52.018;5.576;2023-04-15T09:46:14;2.40;;;0.70;;
67819;SDS011;54618;52.018;5.576;2023-04-15T09:48:40;0.90;;;0.50;;
67819;SDS011;54618;52.018;5.576;2023-04-15T09:51:06;1.48;;;0.52;;
67819;SDS011;54618;52.018;5.576;2023-04-15T09:53:32;1.90;;;0.75;;
67819;SDS011;54618;52.018;5.576;2023-04-15T09:55:59;2.38;;;0.63;;
67819;SDS011;54618;52.018;5.576;2023-04-15T09:58:30;1.85;;;0.57;;
67819;SDS011;54618;52.018;5.576;2023-04-15T10:00:58;0.88;;;0.55;;
67819;SDS011;54618;52.018;5.576;2023-04-15T10:03:25;1.83;;;0.55;;
67819;SDS011;54618;52.018;5.576;2023-04-15T10:05:52;2.92;;;0.60;;
67819;SDS011;54618;52.018;5.576;2023-04-15T10:08:21;1.88;;;0.60;;
67819;SDS011;54618;52.018;5.576;2023-04-15T10:10:48;1.30;;;0.60;;
67819;SDS011;54618;52.018;5.576;2023-04-15T10:13:16;0.88;;;0.57;;
67819;SDS011;54618;52.018;5.576;2023-04-15T10:15:44;1.80;;;0.60;;
67819;SDS011;54618;52.018;5.576;2023-04-15T10:18:21;1.30;;;0.50;;
67819;SDS011;54618;52.018;5.576;2023-04-15T10:20:50;1.10;;;0.65;;
67819;SDS011;54618;52.018;5.576;2023-04-15T10:23:17;2.45;;;0.55;;
67819;SDS011;54618;52.018;5.576;2023-04-15T10:25:42;2.10;;;0.63;;
67819;SDS011;54618;52.018;5.576;2023-04-15T10:28:10;2.08;;;0.68;;
67819;SDS011;54618;52.018;5.576;2023-04-15T10:30:36;1.67;;;0.50;;
67819;SDS011;54618;52.018;5.576;2023-04-15T10:33:02;2.50;;;0.60;;
67819;SDS011;54618;52.018;5.576;2023-04-15T10:35:29;3.00;;;0.60;;
67819;SDS011;54618;52.018;5.576;2023-04-15T10:37:56;5.80;;;0.63;;
67819;SDS011;54618;52.018;5.576;2023-04-15T10:42:59;1.10;;;0.50;;
67819;SDS011;54618;52.018;5.576;2023-04-15T10:45:26;2.33;;;0.50;;
67819;SDS011;54618;52.018;5.576;2023-04-15T10:47:56;1.77;;;0.73;;
67819;SDS011;54618;52.018;5.576;2023-04-15T10:50:25;1.88;;;1.00;;
67819;SDS011;54618;52.018;5.576;2023-04-15T10:52:52;4.45;;;1.10;;
67819;SDS011;54618;52.018;5.576;2023-04-15T10:55:29;2.80;;;1.02;;
67819;SDS011;54618;52.018;5.576;2023-04-15T10:57:57;6.55;;;0.90;;
67819;SDS011;54618;52.018;5.576;2023-04-15T11:00:25;1.40;;;0.63;;
67819;SDS011;54618;52.018;5.576;2023-04-15T11:05:47;2.60;;;0.60;;
67819;SDS011;54618;52.018;5.576;2023-04-15T11:08:13;2.67;;;0.70;;
67819;SDS011;54618;52.018;5.576;2023-04-15T11:15:38;2.33;;;0.63;;
67819;SDS011;54618;52.018;5.576;2023-04-15T11:20:36;1.65;;;0.60;;
67819;SDS011;54618;52.018;5.576;2023-04-15T11:23:03;3.03;;;0.60;;
67819;SDS011;54618;52.018;5.576;2023-04-15T11:25:32;6.70;;;0.60;;
67819;SDS011;54618;52.018;5.576;2023-04-15T11:27:59;3.03;;;0.50;;
67819;SDS011;54618;52.018;5.576;2023-04-15T11:30:27;2.80;;;0.60;;
67819;SDS011;54618;52.018;5.576;2023-04-15T11:32:56;2.47;;;0.70;;
67819;SDS011;54618;52.018;5.576;2023-04-15T11:35:23;2.38;;;0.57;;
67819;SDS011;54618;52.018;5.576;2023-04-15T11:37:49;3.03;;;0.65;;
67819;SDS011;54618;52.018;5.576;2023-04-15T11:40:15;1.70;;;0.50;;
67819;SDS011;54618;52.018;5.576;2023-04-15T11:42:42;1.20;;;0.50;;
67819;SDS011;54618;52.018;5.576;2023-04-15T11:45:12;3.95;;;0.55;;
67819;SDS011;54618;52.018;5.576;2023-04-15T11:50:19;1.88;;;0.60;;
67819;SDS011;54618;52.018;5.576;2023-04-15T11:52:59;3.97;;;0.80;;
67819;SDS011;54618;52.018;5.576;2023-04-15T11:55:26;1.77;;;0.60;;
67819;SDS011;54618;52.018;5.576;2023-04-15T12:00:32;0.98;;;0.50;;
67819;SDS011;54618;52.018;5.576;2023-04-15T12:11:20;2.78;;;0.70;;
67819;SDS011;54618;52.018;5.576;2023-04-15T12:13:55;0.95;;;0.68;;
67819;SDS011;54618;52.018;5.576;2023-04-15T12:16:28;1.48;;;0.50;;
67819;SDS011;54618;52.018;5.576;2023-04-15T12:18:55;1.05;;;0.50;;
67819;SDS011;54618;52.018;5.576;2023-04-15T12:21:23;0.75;;;0.40;;
67819;SDS011;54618;52.018;5.576;2023-04-15T12:23:50;1.88;;;0.50;;
67819;SDS011;54618;52.018;5.576;2023-04-15T12:26:17;0.93;;;0.40;;
67819;SDS011;54618;52.018;5.576;2023-04-15T12:28:52;1.80;;;0.70;;
67819;SDS011;54618;52.018;5.576;2023-04-15T12:31:25;1.08;;;0.50;;
67819;SDS011;54618;52.018;5.576;2023-04-15T12:33:50;1.13;;;0.43;;
67819;SDS011;54618;52.018;5.576;2023-04-15T12:36:19;1.38;;;0.40;;
67819;SDS011;54618;52.018;5.576;2023-04-15T12:38:44;1.63;;;0.52;;
67819;SDS011;54618;52.018;5.576;2023-04-15T12:41:10;1.63;;;0.50;;
67819;SDS011;54618;52.018;5.576;2023-04-15T12:43:36;1.08;;;0.40;;
67819;SDS011;54618;52.018;5.576;2023-04-15T12:46:01;0.98;;;0.47;;
67819;SDS011;54618;52.018;5.576;2023-04-15T12:48:27;0.75;;;0.50;;
67819;SDS011;54618;52.018;5.576;2023-04-15T12:50:52;0.50;;;0.40;;
67819;SDS011;54618;52.018;5.576;2023-04-15T12:53:19;1.00;;;0.57;;
67819;SDS011;54618;52.018;5.576;2023-04-15T12:55:44;0.82;;;0.40;;
67819;SDS011;54618;52.018;5.576;2023-04-15T12:58:10;1.45;;;0.45;;
67819;SDS011;54618;52.018;5.576;2023-04-15T13:00:36;1.70;;;0.55;;
67819;SDS011;54618;52.018;5.576;2023-04-15T13:03:02;3.50;;;0.45;;
67819;SDS011;54618;52.018;5.576;2023-04-15T13:05:28;1.58;;;0.50;;
67819;SDS011;54618;52.018;5.576;2023-04-15T13:07:53;1.50;;;0.45;;
67819;SDS011;54618;52.018;5.576;2023-04-15T13:10:19;0.80;;;0.50;;
67819;SDS011;54618;52.018;5.576;2023-04-15T13:12:47;3.35;;;0.50;;
67819;SDS011;54618;52.018;5.576;2023-04-15T13:15:14;1.00;;;0.40;;
67819;SDS011;54618;52.018;5.576;2023-04-15T13:17:43;3.03;;;0.47;;
67819;SDS011;54618;52.018;5.576;2023-04-15T13:20:09;1.88;;;0.50;;
67819;SDS011;54618;52.018;5.576;2023-04-15T13:22:35;0.70;;;0.40;;
67819;SDS011;54618;52.018;5.576;2023-04-15T13:25:00;0.93;;;0.50;;
67819;SDS011;54618;52.018;5.576;2023-04-15T13:27:26;1.08;;;0.47;;
67819;SDS011;54618;52.018;5.576;2023-04-15T13:29:51;1.30;;;0.50;;
67819;SDS011;54618;52.018;5.576;2023-04-15T13:32:18;2.35;;;0.50;;
67819;SDS011;54618;52.018;5.576;2023-04-15T13:34:44;4.15;;;0.95;;
67819;SDS011;54618;52.018;5.576;2023-04-15T13:37:09;1.10;;;0.57;;
67819;SDS011;54618;52.018;5.576;2023-04-15T13:39:36;1.20;;;0.45;;
67819;SDS011;54618;52.018;5.576;2023-04-15T13:42:01;0.93;;;0.52;;
67819;SDS011;54618;52.018;5.576;2023-04-15T13:44:27;1.20;;;0.50;;
67819;SDS011;54618;52.018;5.576;2023-04-15T13:46:53;0.63;;;0.40;;
67819;SDS011;54618;52.018;5.576;2023-04-15T13:49:18;0.40;;;0.40;;
67819;SDS011;54618;52.018;5.576;2023-04-15T13:51:44;0.65;;;0.40;;
67819;SDS011;54618;52.018;5.576;2023-04-15T13:54:09;0.82;;;0.40;;
67819;SDS011;54618;52.018;5.576;2023-04-15T13:56:35;0.90;;;0.50;;
67819;SDS011;54618;52.018;5.576;2023-04-15T13:59:01;1.92;;;0.50;;
67819;SDS011;54618;52.018;5.576;2023-04-15T14:01:27;0.82;;;0.40;;
67819;SDS011;54618;52.018;5.576;2023-04-15T14:03:53;1.08;;;0.47;;
67819;SDS011;54618;52.018;5.576;2023-04-15T14:06:19;2.47;;;0.45;;
67819;SDS011;54618;52.018;5.576;2023-04-15T14:08:45;2.25;;;0.70;;
67819;SDS011;54618;52.018;5.576;2023-04-15T14:11:10;1.15;;;0.50;;
67819;SDS011;54618;52.018;5.576;2023-04-15T14:13:36;1.70;;;0.50;;
67819;SDS011;54618;52.018;5.576;2023-04-15T14:16:02;2.35;;;0.50;;
67819;SDS011;54618;52.018;5.576;2023-04-15T14:18:27;0.60;;;0.47;;
67819;SDS011;54618;52.018;5.576;2023-04-15T14:20:54;1.38;;;0.60;;
67819;SDS011;54618;52.018;5.576;2023-04-15T14:23:19;1.75;;;0.50;;
67819;SDS011;54618;52.018;5.576;2023-04-15T14:25:45;2.15;;;0.50;;
67819;SDS011;54618;52.018;5.576;2023-04-15T14:28:11;1.30;;;0.50;;
67819;SDS011;54618;52.018;5.576;2023-04-15T14:30:36;1.20;;;0.47;;
67819;SDS011;54618;52.018;5.576;2023-04-15T14:33:02;1.27;;;0.52;;
67819;SDS011;54618;52.018;5.576;2023-04-15T14:35:28;1.42;;;0.55;;
67819;SDS011;54618;52.018;5.576;2023-04-15T14:37:53;1.67;;;0.50;;
67819;SDS011;54618;52.018;5.576;2023-04-15T14:40:19;1.50;;;0.60;;
67819;SDS011;54618;52.018;5.576;2023-04-15T14:42:45;0.73;;;0.45;;
67819;SDS011;54618;52.018;5.576;2023-04-15T14:45:11;0.90;;;0.50;;
67819;SDS011;54618;52.018;5.576;2023-04-15T14:47:36;0.88;;;0.50;;
67819;SDS011;54618;52.018;5.576;2023-04-15T14:50:02;0.80;;;0.40;;
67819;SDS011;54618;52.018;5.576;2023-04-15T14:52:29;1.65;;;0.70;;
67819;SDS011;54618;52.018;5.576;2023-04-15T14:54:57;1.35;;;0.60;;
67819;SDS011;54618;52.018;5.576;2023-04-15T14:57:22;0.70;;;0.50;;
67819;SDS011;54618;52.018;5.576;2023-04-15T14:59:48;3.75;;;0.70;;
67819;SDS011;54618;52.018;5.576;2023-04-15T15:02:13;2.90;;;0.52;;
67819;SDS011;54618;52.018;5.576;2023-04-15T15:04:39;3.00;;;0.50;;
67819;SDS011;54618;52.018;5.576;2023-04-15T15:07:05;0.90;;;0.52;;
67819;SDS011;54618;52.018;5.576;2023-04-15T15:09:30;1.10;;;0.60;;